sensor_id;sensor_type;location;lat;lon;timestamp;P1;durP1;ratioP1;P2;durP2;ratioP2
43670;SDS011;29267;50.906;7.248;2024-02-21T00:01:35;18.42;;;5.53;;
43670;SDS011;29267;50.906;7.248;2024-02-21T00:04:00;13.50;;;3.65;;
43670;SDS011;29267;50.906;7.248;2024-02-21T00:06:26;16.00;;;3.83;;
43670;SDS011;29267;50.906;7.248;2024-02-21T00:08:52;17.83;;;4.90;;
43670;SDS011;29267;50.906;7.248;2024-02-21T00:11:17;12.30;;;3.90;;
43670;SDS011;29267;50.906;7.248;2024-02-21T00:13:43;11.23;;;3.63;;
43670;SDS011;29267;50.906;7.248;2024-02-21T00:16:08;12.32;;;3.97;;
43670;SDS011;29267;50.906;7.248;2024-02-21T00:18:35;12.45;;;3.58;;
43670;SDS011;29267;50.906;7.248;2024-02-21T00:21:01;16.33;;;4.68;;
43670;SDS011;29267;50.906;7.248;2024-02-21T00:23:27;14.85;;;4.70;;
43670;SDS011;29267;50.906;7.248;2024-02-21T00:25:53;15.55;;;3.35;;
43670;SDS011;29267;50.906;7.248;2024-02-21T00:28:19;14.88;;;4.57;;
43670;SDS011;29267;50.906;7.248;2024-02-21T00:30:44;15.45;;;5.00;;
43670;SDS011;29267;50.906;7.248;2024-02-21T00:33:12;13.45;;;4.63;;
43670;SDS011;29267;50.906;7.248;2024-02-21T00:35:38;14.60;;;3.90;;
43670;SDS011;29267;50.906;7.248;2024-02-21T00:38:04;12.13;;;4.63;;
43670;SDS011;29267;50.906;7.248;2024-02-21T00:40:29;16.17;;;4.30;;
43670;SDS011;29267;50.906;7.248;2024-02-21T00:42:55;10.15;;;4.10;;
43670;SDS011;29267;50.906;7.248;2024-02-21T00:45:20;13.68;;;3.97;;
43670;SDS011;29267;50.906;7.248;2024-02-21T00:47:46;11.07;;;3.78;;
43670;SDS011;29267;50.906;7.248;2024-02-21T00:50:12;15.27;;;5.32;;
43670;SDS011;29267;50.906;7.248;2024-02-21T00:52:37;15.40;;;4.60;;
43670;SDS011;29267;50.906;7.248;2024-02-21T00:55:03;13.57;;;4.13;;
43670;SDS011;29267;50.906;7.248;2024-02-21T00:57:29;14.75;;;4.13;;
43670;SDS011;29267;50.906;7.248;2024-02-21T00:59:55;10.10;;;3.75;;
43670;SDS011;29267;50.906;7.248;2024-02-21T01:02:20;13.25;;;4.20;;
43670;SDS011;29267;50.906;7.248;2024-02-21T01:04:46;15.23;;;4.20;;
43670;SDS011;29267;50.906;7.248;2024-02-21T01:07:12;18.65;;;4.43;;
43670;SDS011;29267;50.906;7.248;2024-02-21T01:09:37;16.00;;;4.00;;
43670;SDS011;29267;50.906;7.248;2024-02-21T01:12:03;18.92;;;6.50;;
43670;SDS011;29267;50.906;7.248;2024-02-21T01:14:29;17.90;;;5.00;;
43670;SDS011;29267;50.906;7.248;2024-02-21T01:16:54;15.13;;;4.30;;
43670;SDS011;29267;50.906;7.248;2024-02-21T01:19:20;10.65;;;4.32;;
43670;SDS011;29267;50.906;7.248;2024-02-21T01:21:45;12.60;;;4.05;;
43670;SDS011;29267;50.906;7.248;2024-02-21T01:24:11;15.48;;;3.53;;
43670;SDS011;29267;50.906;7.248;2024-02-21T01:26:36;9.85;;;4.28;;
43670;SDS011;29267;50.906;7.248;2024-02-21T01:29:03;16.33;;;4.10;;
43670;SDS011;29267;50.906;7.248;2024-02-21T01:31:29;18.35;;;4.68;;
43670;SDS011;29267;50.906;7.248;2024-02-21T01:33:54;19.98;;;5.28;;
43670;SDS011;29267;50.906;7.248;2024-02-21T01:36:20;13.00;;;4.43;;
43670;SDS011;29267;50.906;7.248;2024-02-21T01:38:46;12.23;;;4.13;;
43670;SDS011;29267;50.906;7.248;2024-02-21T01:41:11;8.93;;;3.88;;
43670;SDS011;29267;50.906;7.248;2024-02-21T01:43:37;14.45;;;4.22;;
43670;SDS011;29267;50.906;7.248;2024-02-21T01:46:03;12.57;;;4.63;;
43670;SDS011;29267;50.906;7.248;2024-02-21T01:48:28;10.98;;;3.72;;
43670;SDS011;29267;50.906;7.248;2024-02-21T01:50:55;12.63;;;4.90;;
43670;SDS011;29267;50.906;7.248;2024-02-21T01:53:22;16.35;;;4.80;;
43670;SDS011;29267;50.906;7.248;2024-02-21T01:55:59;11.32;;;4.15;;
43670;SDS011;29267;50.906;7.248;2024-02-21T01:58:26;13.82;;;4.32;;
43670;SDS011;29267;50.906;7.248;2024-02-21T02:00:53;17.63;;;3.95;;
43670;SDS011;29267;50.906;7.248;2024-02-21T02:03:22;13.93;;;3.95;;
43670;SDS011;29267;50.906;7.248;2024-02-21T02:05:48;18.38;;;5.10;;
43670;SDS011;29267;50.906;7.248;2024-02-21T02:08:18;13.45;;;3.65;;
43670;SDS011;29267;50.906;7.248;2024-02-21T02:10:45;11.27;;;4.55;;
43670;SDS011;29267;50.906;7.248;2024-02-21T02:13:11;15.68;;;4.28;;
43670;SDS011;29267;50.906;7.248;2024-02-21T02:15:40;10.43;;;3.72;;
43670;SDS011;29267;50.906;7.248;2024-02-21T02:18:06;16.08;;;3.65;;
43670;SDS011;29267;50.906;7.248;2024-02-21T02:20:32;11.77;;;3.50;;
43670;SDS011;29267;50.906;7.248;2024-02-21T02:22:58;20.25;;;4.97;;
43670;SDS011;29267;50.906;7.248;2024-02-21T02:25:25;16.20;;;4.15;;
43670;SDS011;29267;50.906;7.248;2024-02-21T02:27:51;14.60;;;5.00;;
43670;SDS011;29267;50.906;7.248;2024-02-21T02:30:17;14.07;;;4.80;;
43670;SDS011;29267;50.906;7.248;2024-02-21T02:32:46;9.35;;;4.20;;
43670;SDS011;29267;50.906;7.248;2024-02-21T02:35:11;13.13;;;4.03;;
43670;SDS011;29267;50.906;7.248;2024-02-21T02:37:37;12.60;;;3.83;;
43670;SDS011;29267;50.906;7.248;2024-02-21T02:40:06;13.68;;;3.13;;
43670;SDS011;29267;50.906;7.248;2024-02-21T02:42:32;10.48;;;3.65;;
43670;SDS011;29267;50.906;7.248;2024-02-21T02:44:58;8.85;;;3.50;;
43670;SDS011;29267;50.906;7.248;2024-02-21T02:47:23;12.57;;;3.95;;
43670;SDS011;29267;50.906;7.248;2024-02-21T02:49:49;18.35;;;3.88;;
43670;SDS011;29267;50.906;7.248;2024-02-21T02:52:16;10.75;;;3.30;;
43670;SDS011;29267;50.906;7.248;2024-02-21T02:54:42;12.73;;;3.90;;
43670;SDS011;29267;50.906;7.248;2024-02-21T02:57:08;14.80;;;3.63;;
43670;SDS011;29267;50.906;7.248;2024-02-21T02:59:34;14.45;;;4.03;;
43670;SDS011;29267;50.906;7.248;2024-02-21T03:02:00;15.07;;;4.15;;
43670;SDS011;29267;50.906;7.248;2024-02-21T03:04:26;14.27;;;3.80;;
43670;SDS011;29267;50.906;7.248;2024-02-21T03:06:52;17.98;;;4.20;;
43670;SDS011;29267;50.906;7.248;2024-02-21T03:09:18;10.45;;;3.40;;
43670;SDS011;29267;50.906;7.248;2024-02-21T03:11:43;12.70;;;3.95;;
43670;SDS011;29267;50.906;7.248;2024-02-21T03:14:09;11.38;;;4.07;;
43670;SDS011;29267;50.906;7.248;2024-02-21T03:16:35;11.80;;;3.88;;
43670;SDS011;29267;50.906;7.248;2024-02-21T03:19:01;16.50;;;4.05;;
43670;SDS011;29267;50.906;7.248;2024-02-21T03:21:26;10.60;;;4.03;;
43670;SDS011;29267;50.906;7.248;2024-02-21T03:23:52;11.43;;;3.35;;
43670;SDS011;29267;50.906;7.248;2024-02-21T03:26:17;14.88;;;3.65;;
43670;SDS011;29267;50.906;7.248;2024-02-21T03:28:43;14.48;;;3.97;;
43670;SDS011;29267;50.906;7.248;2024-02-21T03:31:11;12.57;;;4.03;;
43670;SDS011;29267;50.906;7.248;2024-02-21T03:33:38;13.95;;;3.90;;
43670;SDS011;29267;50.906;7.248;2024-02-21T03:36:04;8.68;;;3.88;;
43670;SDS011;29267;50.906;7.248;2024-02-21T03:38:30;9.90;;;3.53;;
43670;SDS011;29267;50.906;7.248;2024-02-21T03:40:56;11.82;;;3.10;;
43670;SDS011;29267;50.906;7.248;2024-02-21T03:43:21;13.35;;;4.13;;
43670;SDS011;29267;50.906;7.248;2024-02-21T03:45:47;13.80;;;3.97;;
43670;SDS011;29267;50.906;7.248;2024-02-21T03:48:12;12.13;;;3.53;;
43670;SDS011;29267;50.906;7.248;2024-02-21T03:50:38;15.70;;;3.47;;
43670;SDS011;29267;50.906;7.248;2024-02-21T03:53:03;17.00;;;3.75;;
43670;SDS011;29267;50.906;7.248;2024-02-21T03:55:29;11.55;;;3.33;;
43670;SDS011;29267;50.906;7.248;2024-02-21T03:57:54;12.75;;;4.20;;
43670;SDS011;29267;50.906;7.248;2024-02-21T04:00:20;12.95;;;3.15;;
43670;SDS011;29267;50.906;7.248;2024-02-21T04:02:46;13.63;;;3.70;;
43670;SDS011;29267;50.906;7.248;2024-02-21T04:05:11;7.70;;;3.30;;
43670;SDS011;29267;50.906;7.248;2024-02-21T04:07:40;13.40;;;3.05;;
43670;SDS011;29267;50.906;7.248;2024-02-21T04:10:05;11.20;;;3.70;;
43670;SDS011;29267;50.906;7.248;2024-02-21T04:12:31;14.32;;;3.53;;
43670;SDS011;29267;50.906;7.248;2024-02-21T04:14:57;21.13;;;3.78;;
43670;SDS011;29267;50.906;7.248;2024-02-21T04:17:23;11.73;;;3.47;;
43670;SDS011;29267;50.906;7.248;2024-02-21T04:19:48;19.73;;;4.28;;
43670;SDS011;29267;50.906;7.248;2024-02-21T04:22:14;12.15;;;3.58;;
43670;SDS011;29267;50.906;7.248;2024-02-21T04:24:39;10.18;;;3.53;;
43670;SDS011;29267;50.906;7.248;2024-02-21T04:27:05;9.82;;;4.05;;
43670;SDS011;29267;50.906;7.248;2024-02-21T04:29:30;13.23;;;3.63;;
43670;SDS011;29267;50.906;7.248;2024-02-21T04:31:56;16.77;;;3.50;;
43670;SDS011;29267;50.906;7.248;2024-02-21T04:34:21;16.58;;;3.80;;
43670;SDS011;29267;50.906;7.248;2024-02-21T04:36:47;9.25;;;3.60;;
43670;SDS011;29267;50.906;7.248;2024-02-21T04:39:13;8.82;;;3.05;;
43670;SDS011;29267;50.906;7.248;2024-02-21T04:41:38;16.83;;;3.95;;
43670;SDS011;29267;50.906;7.248;2024-02-21T04:44:04;12.90;;;3.78;;
43670;SDS011;29267;50.906;7.248;2024-02-21T04:46:29;11.02;;;3.60;;
43670;SDS011;29267;50.906;7.248;2024-02-21T04:48:55;13.90;;;2.97;;
43670;SDS011;29267;50.906;7.248;2024-02-21T04:51:21;22.45;;;4.20;;
43670;SDS011;29267;50.906;7.248;2024-02-21T04:53:47;14.00;;;3.20;;
43670;SDS011;29267;50.906;7.248;2024-02-21T04:56:12;14.70;;;3.35;;
43670;SDS011;29267;50.906;7.248;2024-02-21T04:58:38;10.85;;;3.55;;
43670;SDS011;29267;50.906;7.248;2024-02-21T05:01:04;11.85;;;3.30;;
43670;SDS011;29267;50.906;7.248;2024-02-21T05:03:30;16.60;;;3.53;;
43670;SDS011;29267;50.906;7.248;2024-02-21T05:05:55;19.48;;;4.45;;
43670;SDS011;29267;50.906;7.248;2024-02-21T05:08:21;11.10;;;3.40;;
43670;SDS011;29267;50.906;7.248;2024-02-21T05:10:46;9.27;;;3.10;;
43670;SDS011;29267;50.906;7.248;2024-02-21T05:13:12;16.58;;;3.13;;
43670;SDS011;29267;50.906;7.248;2024-02-21T05:15:37;14.55;;;3.22;;
43670;SDS011;29267;50.906;7.248;2024-02-21T05:18:03;18.67;;;4.50;;
43670;SDS011;29267;50.906;7.248;2024-02-21T05:20:29;12.88;;;3.15;;
43670;SDS011;29267;50.906;7.248;2024-02-21T05:22:54;13.98;;;3.20;;
43670;SDS011;29267;50.906;7.248;2024-02-21T05:25:20;16.52;;;3.97;;
43670;SDS011;29267;50.906;7.248;2024-02-21T05:27:45;9.70;;;3.08;;
43670;SDS011;29267;50.906;7.248;2024-02-21T05:30:11;9.60;;;3.47;;
43670;SDS011;29267;50.906;7.248;2024-02-21T05:32:37;14.13;;;3.00;;
43670;SDS011;29267;50.906;7.248;2024-02-21T05:35:03;8.15;;;2.70;;
43670;SDS011;29267;50.906;7.248;2024-02-21T05:37:28;8.57;;;3.33;;
43670;SDS011;29267;50.906;7.248;2024-02-21T05:39:54;10.68;;;3.65;;
43670;SDS011;29267;50.906;7.248;2024-02-21T05:42:19;17.90;;;3.10;;
43670;SDS011;29267;50.906;7.248;2024-02-21T05:44:45;10.02;;;3.55;;
43670;SDS011;29267;50.906;7.248;2024-02-21T05:47:10;7.13;;;2.72;;
43670;SDS011;29267;50.906;7.248;2024-02-21T05:49:39;9.48;;;3.03;;
43670;SDS011;29267;50.906;7.248;2024-02-21T05:52:04;11.27;;;3.40;;
43670;SDS011;29267;50.906;7.248;2024-02-21T05:54:31;14.30;;;3.28;;
43670;SDS011;29267;50.906;7.248;2024-02-21T05:56:56;14.13;;;4.00;;
43670;SDS011;29267;50.906;7.248;2024-02-21T05:59:22;9.88;;;2.63;;
43670;SDS011;29267;50.906;7.248;2024-02-21T06:01:54;11.50;;;3.03;;
43670;SDS011;29267;50.906;7.248;2024-02-21T06:04:23;11.63;;;3.20;;
43670;SDS011;29267;50.906;7.248;2024-02-21T06:06:49;10.13;;;2.78;;
43670;SDS011;29267;50.906;7.248;2024-02-21T06:09:14;16.70;;;3.05;;
43670;SDS011;29267;50.906;7.248;2024-02-21T06:11:40;10.25;;;3.47;;
43670;SDS011;29267;50.906;7.248;2024-02-21T06:14:05;10.18;;;3.22;;
43670;SDS011;29267;50.906;7.248;2024-02-21T06:16:31;9.57;;;3.28;;
43670;SDS011;29267;50.906;7.248;2024-02-21T06:18:56;12.10;;;4.00;;
43670;SDS011;29267;50.906;7.248;2024-02-21T06:21:22;9.57;;;3.30;;
43670;SDS011;29267;50.906;7.248;2024-02-21T06:23:47;8.68;;;3.25;;
43670;SDS011;29267;50.906;7.248;2024-02-21T06:26:13;7.75;;;3.03;;
43670;SDS011;29267;50.906;7.248;2024-02-21T06:28:38;10.73;;;2.75;;
43670;SDS011;29267;50.906;7.248;2024-02-21T06:31:04;12.98;;;2.83;;
43670;SDS011;29267;50.906;7.248;2024-02-21T06:33:30;10.65;;;3.55;;
43670;SDS011;29267;50.906;7.248;2024-02-21T06:35:55;9.65;;;3.20;;
43670;SDS011;29267;50.906;7.248;2024-02-21T06:38:21;13.35;;;3.35;;
43670;SDS011;29267;50.906;7.248;2024-02-21T06:40:47;13.65;;;3.30;;
43670;SDS011;29267;50.906;7.248;2024-02-21T06:43:16;21.75;;;3.90;;
43670;SDS011;29267;50.906;7.248;2024-02-21T06:45:43;9.32;;;3.20;;
43670;SDS011;29267;50.906;7.248;2024-02-21T06:48:12;11.07;;;3.05;;
43670;SDS011;29267;50.906;7.248;2024-02-21T06:50:38;10.45;;;3.45;;
43670;SDS011;29267;50.906;7.248;2024-02-21T06:53:03;8.98;;;3.05;;
43670;SDS011;29267;50.906;7.248;2024-02-21T06:55:29;7.43;;;2.72;;
43670;SDS011;29267;50.906;7.248;2024-02-21T06:57:54;17.83;;;2.95;;
43670;SDS011;29267;50.906;7.248;2024-02-21T07:00:20;7.78;;;2.92;;
43670;SDS011;29267;50.906;7.248;2024-02-21T07:02:46;13.13;;;3.05;;
43670;SDS011;29267;50.906;7.248;2024-02-21T07:05:12;8.48;;;3.40;;
43670;SDS011;29267;50.906;7.248;2024-02-21T07:07:38;9.80;;;2.88;;
43670;SDS011;29267;50.906;7.248;2024-02-21T07:10:05;14.52;;;3.28;;
43670;SDS011;29267;50.906;7.248;2024-02-21T07:12:31;7.72;;;2.75;;
43670;SDS011;29267;50.906;7.248;2024-02-21T07:14:57;7.95;;;2.88;;
43670;SDS011;29267;50.906;7.248;2024-02-21T07:17:22;15.60;;;3.97;;
43670;SDS011;29267;50.906;7.248;2024-02-21T07:19:48;10.77;;;3.75;;
43670;SDS011;29267;50.906;7.248;2024-02-21T07:22:13;11.95;;;2.53;;
43670;SDS011;29267;50.906;7.248;2024-02-21T07:24:39;14.18;;;2.67;;
43670;SDS011;29267;50.906;7.248;2024-02-21T07:27:05;13.43;;;2.95;;
43670;SDS011;29267;50.906;7.248;2024-02-21T07:29:30;12.57;;;2.75;;
43670;SDS011;29267;50.906;7.248;2024-02-21T07:31:56;11.38;;;3.13;;
43670;SDS011;29267;50.906;7.248;2024-02-21T07:34:21;12.35;;;4.30;;
43670;SDS011;29267;50.906;7.248;2024-02-21T07:36:47;6.35;;;2.17;;
43670;SDS011;29267;50.906;7.248;2024-02-21T07:39:12;11.23;;;2.95;;
43670;SDS011;29267;50.906;7.248;2024-02-21T07:41:38;8.02;;;2.85;;
43670;SDS011;29267;50.906;7.248;2024-02-21T07:44:05;11.60;;;3.20;;
43670;SDS011;29267;50.906;7.248;2024-02-21T07:46:30;9.25;;;2.40;;
43670;SDS011;29267;50.906;7.248;2024-02-21T07:48:56;7.47;;;2.60;;
43670;SDS011;29267;50.906;7.248;2024-02-21T07:51:21;10.13;;;3.03;;
43670;SDS011;29267;50.906;7.248;2024-02-21T07:53:47;11.48;;;2.47;;
43670;SDS011;29267;50.906;7.248;2024-02-21T07:56:13;9.63;;;2.63;;
43670;SDS011;29267;50.906;7.248;2024-02-21T07:58:40;6.43;;;2.15;;
43670;SDS011;29267;50.906;7.248;2024-02-21T08:01:07;8.77;;;2.63;;
43670;SDS011;29267;50.906;7.248;2024-02-21T08:03:33;7.88;;;2.20;;
43670;SDS011;29267;50.906;7.248;2024-02-21T08:05:58;7.05;;;2.92;;
43670;SDS011;29267;50.906;7.248;2024-02-21T08:08:24;7.95;;;3.40;;
43670;SDS011;29267;50.906;7.248;2024-02-21T08:10:50;9.48;;;2.95;;
43670;SDS011;29267;50.906;7.248;2024-02-21T08:13:15;10.35;;;2.45;;
43670;SDS011;29267;50.906;7.248;2024-02-21T08:15:41;15.88;;;2.88;;
43670;SDS011;29267;50.906;7.248;2024-02-21T08:18:07;9.00;;;3.03;;
43670;SDS011;29267;50.906;7.248;2024-02-21T08:20:33;10.05;;;3.00;;
43670;SDS011;29267;50.906;7.248;2024-02-21T08:22:59;8.02;;;2.63;;
43670;SDS011;29267;50.906;7.248;2024-02-21T08:25:25;14.27;;;3.20;;
43670;SDS011;29267;50.906;7.248;2024-02-21T08:27:50;11.60;;;2.53;;
43670;SDS011;29267;50.906;7.248;2024-02-21T08:30:19;15.68;;;3.67;;
43670;SDS011;29267;50.906;7.248;2024-02-21T08:32:45;14.40;;;3.15;;
43670;SDS011;29267;50.906;7.248;2024-02-21T08:35:10;11.90;;;3.17;;
43670;SDS011;29267;50.906;7.248;2024-02-21T08:37:37;9.50;;;2.95;;
43670;SDS011;29267;50.906;7.248;2024-02-21T08:40:02;11.10;;;3.17;;
43670;SDS011;29267;50.906;7.248;2024-02-21T08:42:33;11.43;;;3.38;;
43670;SDS011;29267;50.906;7.248;2024-02-21T08:45:04;13.50;;;4.05;;
43670;SDS011;29267;50.906;7.248;2024-02-21T08:47:29;10.07;;;4.35;;
43670;SDS011;29267;50.906;7.248;2024-02-21T08:49:55;17.42;;;6.57;;
43670;SDS011;29267;50.906;7.248;2024-02-21T08:52:21;13.70;;;3.78;;
43670;SDS011;29267;50.906;7.248;2024-02-21T08:54:47;29.05;;;9.18;;
43670;SDS011;29267;50.906;7.248;2024-02-21T08:57:12;24.95;;;7.05;;
43670;SDS011;29267;50.906;7.248;2024-02-21T08:59:39;16.70;;;5.28;;
43670;SDS011;29267;50.906;7.248;2024-02-21T09:02:04;23.42;;;8.15;;
43670;SDS011;29267;50.906;7.248;2024-02-21T09:04:32;9.20;;;4.50;;
43670;SDS011;29267;50.906;7.248;2024-02-21T09:06:58;11.07;;;3.17;;
43670;SDS011;29267;50.906;7.248;2024-02-21T09:09:24;14.95;;;3.85;;
43670;SDS011;29267;50.906;7.248;2024-02-21T09:11:49;24.45;;;8.85;;
43670;SDS011;29267;50.906;7.248;2024-02-21T09:14:15;9.93;;;3.47;;
43670;SDS011;29267;50.906;7.248;2024-02-21T09:16:40;15.05;;;3.20;;
43670;SDS011;29267;50.906;7.248;2024-02-21T09:19:06;10.27;;;3.05;;
43670;SDS011;29267;50.906;7.248;2024-02-21T09:21:35;11.95;;;3.70;;
43670;SDS011;29267;50.906;7.248;2024-02-21T09:24:01;13.85;;;4.00;;
43670;SDS011;29267;50.906;7.248;2024-02-21T09:26:27;8.30;;;2.65;;
43670;SDS011;29267;50.906;7.248;2024-02-21T09:28:53;15.88;;;5.35;;
43670;SDS011;29267;50.906;7.248;2024-02-21T09:31:18;17.33;;;6.78;;
43670;SDS011;29267;50.906;7.248;2024-02-21T09:33:44;45.65;;;18.73;;
43670;SDS011;29267;50.906;7.248;2024-02-21T09:36:10;80.00;;;26.85;;
43670;SDS011;29267;50.906;7.248;2024-02-21T09:38:36;63.28;;;21.13;;
43670;SDS011;29267;50.906;7.248;2024-02-21T09:43:45;42.70;;;10.88;;
43670;SDS011;29267;50.906;7.248;2024-02-21T09:46:17;28.80;;;7.80;;
43670;SDS011;29267;50.906;7.248;2024-02-21T09:51:49;28.88;;;9.27;;
43670;SDS011;29267;50.906;7.248;2024-02-21T09:54:16;27.23;;;8.13;;
43670;SDS011;29267;50.906;7.248;2024-02-21T09:56:45;9.73;;;4.72;;
43670;SDS011;29267;50.906;7.248;2024-02-21T09:59:12;22.55;;;7.07;;
43670;SDS011;29267;50.906;7.248;2024-02-21T10:01:38;20.00;;;4.55;;
43670;SDS011;29267;50.906;7.248;2024-02-21T10:04:04;57.58;;;17.88;;
43670;SDS011;29267;50.906;7.248;2024-02-21T10:06:29;32.70;;;11.35;;
43670;SDS011;29267;50.906;7.248;2024-02-21T10:08:55;8.02;;;2.63;;
43670;SDS011;29267;50.906;7.248;2024-02-21T10:11:24;20.77;;;4.10;;
43670;SDS011;29267;50.906;7.248;2024-02-21T10:13:50;12.30;;;5.15;;
43670;SDS011;29267;50.906;7.248;2024-02-21T10:16:16;13.30;;;3.20;;
43670;SDS011;29267;50.906;7.248;2024-02-21T10:18:42;10.57;;;3.13;;
43670;SDS011;29267;50.906;7.248;2024-02-21T10:21:07;12.32;;;2.80;;
43670;SDS011;29267;50.906;7.248;2024-02-21T10:23:49;9.38;;;2.75;;
43670;SDS011;29267;50.906;7.248;2024-02-21T10:26:16;12.00;;;2.88;;
43670;SDS011;29267;50.906;7.248;2024-02-21T10:28:43;10.02;;;3.20;;
43670;SDS011;29267;50.906;7.248;2024-02-21T10:31:26;14.18;;;4.05;;
43670;SDS011;29267;50.906;7.248;2024-02-21T10:36:25;10.23;;;2.97;;
43670;SDS011;29267;50.906;7.248;2024-02-21T10:38:51;13.50;;;3.00;;
43670;SDS011;29267;50.906;7.248;2024-02-21T10:41:18;17.35;;;6.18;;
43670;SDS011;29267;50.906;7.248;2024-02-21T10:43:49;9.98;;;4.20;;
43670;SDS011;29267;50.906;7.248;2024-02-21T10:48:46;37.78;;;14.35;;
43670;SDS011;29267;50.906;7.248;2024-02-21T10:58:56;11.55;;;3.03;;
43670;SDS011;29267;50.906;7.248;2024-02-21T11:01:23;13.50;;;2.90;;
43670;SDS011;29267;50.906;7.248;2024-02-21T11:03:52;6.55;;;2.90;;
43670;SDS011;29267;50.906;7.248;2024-02-21T11:06:19;8.77;;;3.25;;
43670;SDS011;29267;50.906;7.248;2024-02-21T11:08:46;9.52;;;3.08;;
43670;SDS011;29267;50.906;7.248;2024-02-21T11:11:13;13.68;;;4.30;;
43670;SDS011;29267;50.906;7.248;2024-02-21T11:13:44;22.58;;;5.50;;
43670;SDS011;29267;50.906;7.248;2024-02-21T11:16:11;10.00;;;3.03;;
43670;SDS011;29267;50.906;7.248;2024-02-21T11:18:46;9.43;;;2.63;;
43670;SDS011;29267;50.906;7.248;2024-02-21T11:21:11;11.23;;;2.28;;
43670;SDS011;29267;50.906;7.248;2024-02-21T11:23:37;17.73;;;5.30;;
43670;SDS011;29267;50.906;7.248;2024-02-21T11:26:06;13.80;;;2.70;;
43670;SDS011;29267;50.906;7.248;2024-02-21T11:28:35;6.95;;;2.55;;
43670;SDS011;29267;50.906;7.248;2024-02-21T11:31:12;8.85;;;2.50;;
43670;SDS011;29267;50.906;7.248;2024-02-21T11:33:42;10.48;;;2.47;;
43670;SDS011;29267;50.906;7.248;2024-02-21T11:36:11;8.82;;;3.28;;
43670;SDS011;29267;50.906;7.248;2024-02-21T11:38:51;8.38;;;2.50;;
43670;SDS011;29267;50.906;7.248;2024-02-21T11:41:18;12.75;;;3.05;;
43670;SDS011;29267;50.906;7.248;2024-02-21T11:43:45;13.82;;;3.55;;
43670;SDS011;29267;50.906;7.248;2024-02-21T11:46:11;21.98;;;6.57;;
43670;SDS011;29267;50.906;7.248;2024-02-21T11:48:39;10.07;;;3.60;;
43670;SDS011;29267;50.906;7.248;2024-02-21T11:51:06;17.38;;;6.72;;
43670;SDS011;29267;50.906;7.248;2024-02-21T11:53:31;19.15;;;7.65;;
43670;SDS011;29267;50.906;7.248;2024-02-21T11:55:58;8.27;;;2.75;;
43670;SDS011;29267;50.906;7.248;2024-02-21T11:58:24;8.25;;;2.30;;
43670;SDS011;29267;50.906;7.248;2024-02-21T12:00:50;11.90;;;2.95;;
43670;SDS011;29267;50.906;7.248;2024-02-21T12:03:16;12.68;;;3.83;;
43670;SDS011;29267;50.906;7.248;2024-02-21T12:05:42;10.50;;;3.38;;
43670;SDS011;29267;50.906;7.248;2024-02-21T12:08:08;8.13;;;2.55;;
43670;SDS011;29267;50.906;7.248;2024-02-21T12:10:34;5.60;;;2.58;;
43670;SDS011;29267;50.906;7.248;2024-02-21T12:13:07;6.55;;;3.13;;
43670;SDS011;29267;50.906;7.248;2024-02-21T12:15:33;11.10;;;2.47;;
43670;SDS011;29267;50.906;7.248;2024-02-21T12:17:59;12.82;;;2.88;;
43670;SDS011;29267;50.906;7.248;2024-02-21T12:20:25;9.15;;;2.83;;
43670;SDS011;29267;50.906;7.248;2024-02-21T12:22:51;8.43;;;2.80;;
43670;SDS011;29267;50.906;7.248;2024-02-21T12:25:19;10.98;;;2.00;;
43670;SDS011;29267;50.906;7.248;2024-02-21T12:27:52;10.20;;;2.47;;
43670;SDS011;29267;50.906;7.248;2024-02-21T12:30:18;6.68;;;2.05;;
43670;SDS011;29267;50.906;7.248;2024-02-21T12:32:44;5.75;;;1.95;;
43670;SDS011;29267;50.906;7.248;2024-02-21T12:35:10;7.13;;;2.38;;
43670;SDS011;29267;50.906;7.248;2024-02-21T12:37:36;10.38;;;2.15;;
43670;SDS011;29267;50.906;7.248;2024-02-21T12:40:03;10.02;;;2.20;;
43670;SDS011;29267;50.906;7.248;2024-02-21T12:42:33;8.75;;;2.13;;
43670;SDS011;29267;50.906;7.248;2024-02-21T12:44:59;12.45;;;2.65;;
43670;SDS011;29267;50.906;7.248;2024-02-21T12:47:24;8.38;;;2.60;;
43670;SDS011;29267;50.906;7.248;2024-02-21T12:49:51;9.68;;;2.30;;
43670;SDS011;29267;50.906;7.248;2024-02-21T12:52:17;4.70;;;2.00;;
43670;SDS011;29267;50.906;7.248;2024-02-21T12:54:43;8.50;;;2.55;;
43670;SDS011;29267;50.906;7.248;2024-02-21T12:57:09;8.05;;;2.83;;
43670;SDS011;29267;50.906;7.248;2024-02-21T12:59:34;7.82;;;2.28;;
43670;SDS011;29267;50.906;7.248;2024-02-21T13:02:00;8.10;;;2.15;;
43670;SDS011;29267;50.906;7.248;2024-02-21T13:04:25;7.30;;;2.33;;
43670;SDS011;29267;50.906;7.248;2024-02-21T13:06:51;7.30;;;3.15;;
43670;SDS011;29267;50.906;7.248;2024-02-21T13:09:16;9.13;;;2.40;;
43670;SDS011;29267;50.906;7.248;2024-02-21T13:11:43;9.40;;;2.38;;
43670;SDS011;29267;50.906;7.248;2024-02-21T13:14:11;6.90;;;2.90;;
43670;SDS011;29267;50.906;7.248;2024-02-21T13:16:36;6.10;;;2.33;;
43670;SDS011;29267;50.906;7.248;2024-02-21T13:19:07;13.20;;;3.90;;
43670;SDS011;29267;50.906;7.248;2024-02-21T13:21:36;6.72;;;2.67;;
43670;SDS011;29267;50.906;7.248;2024-02-21T13:24:02;13.20;;;2.70;;
43670;SDS011;29267;50.906;7.248;2024-02-21T13:26:28;9.23;;;2.33;;
43670;SDS011;29267;50.906;7.248;2024-02-21T13:28:53;9.90;;;2.38;;
43670;SDS011;29267;50.906;7.248;2024-02-21T13:31:19;5.80;;;1.63;;
43670;SDS011;29267;50.906;7.248;2024-02-21T13:33:45;6.15;;;3.03;;
43670;SDS011;29267;50.906;7.248;2024-02-21T13:36:11;7.95;;;2.33;;
43670;SDS011;29267;50.906;7.248;2024-02-21T13:38:36;6.93;;;2.92;;
43670;SDS011;29267;50.906;7.248;2024-02-21T13:41:03;12.55;;;2.90;;
43670;SDS011;29267;50.906;7.248;2024-02-21T13:43:30;10.35;;;2.63;;
43670;SDS011;29267;50.906;7.248;2024-02-21T13:45:59;5.25;;;1.90;;
43670;SDS011;29267;50.906;7.248;2024-02-21T13:48:32;13.45;;;2.78;;
43670;SDS011;29267;50.906;7.248;2024-02-21T13:50:58;9.13;;;2.40;;
43670;SDS011;29267;50.906;7.248;2024-02-21T13:53:24;4.85;;;2.13;;
43670;SDS011;29267;50.906;7.248;2024-02-21T13:55:50;14.25;;;2.90;;
43670;SDS011;29267;50.906;7.248;2024-02-21T13:58:15;7.18;;;2.95;;
43670;SDS011;29267;50.906;7.248;2024-02-21T14:00:42;9.10;;;2.40;;
43670;SDS011;29267;50.906;7.248;2024-02-21T14:03:08;9.10;;;2.00;;
43670;SDS011;29267;50.906;7.248;2024-02-21T14:05:34;7.50;;;2.40;;
43670;SDS011;29267;50.906;7.248;2024-02-21T14:08:00;8.63;;;3.08;;
43670;SDS011;29267;50.906;7.248;2024-02-21T14:10:25;5.35;;;2.28;;
43670;SDS011;29267;50.906;7.248;2024-02-21T14:12:51;4.60;;;2.90;;
43670;SDS011;29267;50.906;7.248;2024-02-21T14:15:16;9.82;;;2.08;;
43670;SDS011;29267;50.906;7.248;2024-02-21T14:17:42;8.13;;;2.35;;
43670;SDS011;29267;50.906;7.248;2024-02-21T14:20:08;7.53;;;2.30;;
43670;SDS011;29267;50.906;7.248;2024-02-21T14:22:34;4.55;;;1.67;;
43670;SDS011;29267;50.906;7.248;2024-02-21T14:25:02;6.13;;;2.38;;
43670;SDS011;29267;50.906;7.248;2024-02-21T14:27:30;8.13;;;1.95;;
43670;SDS011;29267;50.906;7.248;2024-02-21T14:29:56;14.75;;;2.03;;
43670;SDS011;29267;50.906;7.248;2024-02-21T14:32:21;9.15;;;2.55;;
43670;SDS011;29267;50.906;7.248;2024-02-21T14:34:47;7.40;;;2.78;;
43670;SDS011;29267;50.906;7.248;2024-02-21T14:37:13;8.52;;;2.00;;
43670;SDS011;29267;50.906;7.248;2024-02-21T14:39:39;7.47;;;2.38;;
43670;SDS011;29267;50.906;7.248;2024-02-21T14:42:05;10.68;;;3.15;;
43670;SDS011;29267;50.906;7.248;2024-02-21T14:44:30;16.45;;;4.75;;
43670;SDS011;29267;50.906;7.248;2024-02-21T14:46:56;17.00;;;5.82;;
43670;SDS011;29267;50.906;7.248;2024-02-21T14:49:21;12.90;;;4.50;;
43670;SDS011;29267;50.906;7.248;2024-02-21T14:51:47;10.30;;;2.30;;